sensor_id;sensor_type;location;lat;lon;timestamp;P1;durP1;ratioP1;P2;durP2;ratioP2
52618;SDS011;38513;53.234;6.568;2022-10-16T00:02:20;11.77;;;2.22;;
52618;SDS011;38513;53.234;6.568;2022-10-16T00:04:46;9.40;;;2.20;;
52618;SDS011;38513;53.234;6.568;2022-10-16T00:07:12;10.75;;;2.65;;
52618;SDS011;38513;53.234;6.568;2022-10-16T00:09:40;12.25;;;2.50;;
52618;SDS011;38513;53.234;6.568;2022-10-16T00:12:06;12.45;;;2.50;;
52618;SDS011;38513;53.234;6.568;2022-10-16T00:14:32;10.33;;;2.27;;
52618;SDS011;38513;53.234;6.568;2022-10-16T00:16:59;9.05;;;2.20;;
52618;SDS011;38513;53.234;6.568;2022-10-16T00:19:25;9.07;;;2.67;;
52618;SDS011;38513;53.234;6.568;2022-10-16T00:21:51;9.30;;;2.53;;
52618;SDS011;38513;53.234;6.568;2022-10-16T00:24:17;9.07;;;2.40;;
52618;SDS011;38513;53.234;6.568;2022-10-16T00:26:43;9.98;;;2.25;;
52618;SDS011;38513;53.234;6.568;2022-10-16T00:29:09;10.13;;;2.43;;
52618;SDS011;38513;53.234;6.568;2022-10-16T00:31:35;8.18;;;2.28;;
52618;SDS011;38513;53.234;6.568;2022-10-16T00:34:02;12.75;;;2.70;;
52618;SDS011;38513;53.234;6.568;2022-10-16T00:36:28;11.88;;;2.60;;
52618;SDS011;38513;53.234;6.568;2022-10-16T00:38:56;13.65;;;2.47;;
52618;SDS011;38513;53.234;6.568;2022-10-16T00:41:24;10.13;;;2.10;;
52618;SDS011;38513;53.234;6.568;2022-10-16T00:43:55;10.02;;;2.20;;
52618;SDS011;38513;53.234;6.568;2022-10-16T00:46:23;10.37;;;2.73;;
52618;SDS011;38513;53.234;6.568;2022-10-16T00:48:52;9.65;;;2.50;;
52618;SDS011;38513;53.234;6.568;2022-10-16T00:51:21;8.60;;;2.10;;
52618;SDS011;38513;53.234;6.568;2022-10-16T00:53:49;9.45;;;2.20;;
52618;SDS011;38513;53.234;6.568;2022-10-16T00:56:15;9.18;;;2.40;;
52618;SDS011;38513;53.234;6.568;2022-10-16T00:58:42;10.27;;;2.08;;
52618;SDS011;38513;53.234;6.568;2022-10-16T01:01:08;7.90;;;2.10;;
52618;SDS011;38513;53.234;6.568;2022-10-16T01:03:35;8.70;;;2.22;;
52618;SDS011;38513;53.234;6.568;2022-10-16T01:08:48;8.48;;;2.10;;
52618;SDS011;38513;53.234;6.568;2022-10-16T01:13:49;7.40;;;1.98;;
52618;SDS011;38513;53.234;6.568;2022-10-16T01:16:22;11.45;;;2.20;;
52618;SDS011;38513;53.234;6.568;2022-10-16T01:18:54;8.48;;;1.92;;
52618;SDS011;38513;53.234;6.568;2022-10-16T01:21:24;9.00;;;1.70;;
52618;SDS011;38513;53.234;6.568;2022-10-16T01:31:33;8.50;;;1.88;;
52618;SDS011;38513;53.234;6.568;2022-10-16T01:34:03;10.10;;;2.10;;
52618;SDS011;38513;53.234;6.568;2022-10-16T01:36:39;9.35;;;1.55;;
52618;SDS011;38513;53.234;6.568;2022-10-16T01:39:07;9.57;;;1.90;;
52618;SDS011;38513;53.234;6.568;2022-10-16T01:41:36;7.83;;;1.93;;
52618;SDS011;38513;53.234;6.568;2022-10-16T01:46:34;9.53;;;1.73;;
52618;SDS011;38513;53.234;6.568;2022-10-16T01:49:02;9.13;;;2.17;;
52618;SDS011;38513;53.234;6.568;2022-10-16T01:51:28;7.80;;;1.80;;
52618;SDS011;38513;53.234;6.568;2022-10-16T01:53:55;8.13;;;1.60;;
52618;SDS011;38513;53.234;6.568;2022-10-16T01:56:25;9.25;;;2.13;;
52618;SDS011;38513;53.234;6.568;2022-10-16T01:58:56;7.13;;;1.93;;
52618;SDS011;38513;53.234;6.568;2022-10-16T02:01:24;7.97;;;2.00;;
52618;SDS011;38513;53.234;6.568;2022-10-16T02:03:53;9.27;;;2.08;;
52618;SDS011;38513;53.234;6.568;2022-10-16T02:06:20;8.02;;;1.95;;
52618;SDS011;38513;53.234;6.568;2022-10-16T02:08:46;6.87;;;1.67;;
52618;SDS011;38513;53.234;6.568;2022-10-16T02:11:16;8.30;;;1.90;;
52618;SDS011;38513;53.234;6.568;2022-10-16T02:13:46;8.65;;;2.17;;
52618;SDS011;38513;53.234;6.568;2022-10-16T02:16:13;8.50;;;1.90;;
52618;SDS011;38513;53.234;6.568;2022-10-16T02:18:40;6.97;;;1.90;;
52618;SDS011;38513;53.234;6.568;2022-10-16T02:26:26;8.25;;;1.98;;
52618;SDS011;38513;53.234;6.568;2022-10-16T02:28:54;7.95;;;1.90;;
52618;SDS011;38513;53.234;6.568;2022-10-16T02:31:26;8.00;;;2.05;;
52618;SDS011;38513;53.234;6.568;2022-10-16T02:33:54;5.90;;;1.80;;
52618;SDS011;38513;53.234;6.568;2022-10-16T02:36:22;6.20;;;1.63;;
52618;SDS011;38513;53.234;6.568;2022-10-16T02:38:48;8.48;;;1.88;;
52618;SDS011;38513;53.234;6.568;2022-10-16T02:41:15;6.93;;;1.65;;
52618;SDS011;38513;53.234;6.568;2022-10-16T02:43:41;7.25;;;1.63;;
52618;SDS011;38513;53.234;6.568;2022-10-16T02:46:07;6.53;;;2.10;;
52618;SDS011;38513;53.234;6.568;2022-10-16T02:48:33;6.78;;;1.80;;
52618;SDS011;38513;53.234;6.568;2022-10-16T02:51:00;7.18;;;1.77;;
52618;SDS011;38513;53.234;6.568;2022-10-16T02:53:26;7.00;;;1.90;;
52618;SDS011;38513;53.234;6.568;2022-10-16T02:55:53;6.45;;;1.98;;
52618;SDS011;38513;53.234;6.568;2022-10-16T02:58:19;5.72;;;1.80;;
52618;SDS011;38513;53.234;6.568;2022-10-16T03:00:45;9.00;;;1.73;;
52618;SDS011;38513;53.234;6.568;2022-10-16T03:03:11;7.18;;;1.90;;
52618;SDS011;38513;53.234;6.568;2022-10-16T03:05:37;8.55;;;1.80;;
52618;SDS011;38513;53.234;6.568;2022-10-16T03:08:03;6.28;;;1.77;;
52618;SDS011;38513;53.234;6.568;2022-10-16T03:10:29;8.00;;;1.85;;
52618;SDS011;38513;53.234;6.568;2022-10-16T03:12:56;6.40;;;1.90;;
52618;SDS011;38513;53.234;6.568;2022-10-16T03:15:23;7.63;;;1.92;;
52618;SDS011;38513;53.234;6.568;2022-10-16T03:17:49;6.10;;;1.90;;
52618;SDS011;38513;53.234;6.568;2022-10-16T03:20:15;8.13;;;1.83;;
52618;SDS011;38513;53.234;6.568;2022-10-16T03:22:41;6.80;;;1.45;;
52618;SDS011;38513;53.234;6.568;2022-10-16T03:25:07;6.22;;;1.88;;
52618;SDS011;38513;53.234;6.568;2022-10-16T03:27:34;5.70;;;1.60;;
52618;SDS011;38513;53.234;6.568;2022-10-16T03:30:00;6.28;;;1.65;;
52618;SDS011;38513;53.234;6.568;2022-10-16T03:32:26;6.03;;;1.60;;
52618;SDS011;38513;53.234;6.568;2022-10-16T03:34:53;6.25;;;1.60;;
52618;SDS011;38513;53.234;6.568;2022-10-16T03:37:21;6.85;;;1.83;;
52618;SDS011;38513;53.234;6.568;2022-10-16T03:39:48;7.30;;;1.70;;
52618;SDS011;38513;53.234;6.568;2022-10-16T03:42:14;8.20;;;1.70;;
52618;SDS011;38513;53.234;6.568;2022-10-16T03:44:42;7.28;;;1.83;;
52618;SDS011;38513;53.234;6.568;2022-10-16T03:47:08;7.00;;;1.60;;
52618;SDS011;38513;53.234;6.568;2022-10-16T03:49:34;6.38;;;1.67;;
52618;SDS011;38513;53.234;6.568;2022-10-16T03:52:00;5.90;;;1.58;;
52618;SDS011;38513;53.234;6.568;2022-10-16T03:54:26;6.82;;;1.77;;
52618;SDS011;38513;53.234;6.568;2022-10-16T03:56:52;5.20;;;1.60;;
52618;SDS011;38513;53.234;6.568;2022-10-16T03:59:18;7.97;;;1.60;;
52618;SDS011;38513;53.234;6.568;2022-10-16T04:01:45;7.47;;;1.88;;
52618;SDS011;38513;53.234;6.568;2022-10-16T04:04:11;8.07;;;2.00;;
52618;SDS011;38513;53.234;6.568;2022-10-16T04:06:37;7.88;;;1.95;;
52618;SDS011;38513;53.234;6.568;2022-10-16T04:09:06;6.23;;;1.90;;
52618;SDS011;38513;53.234;6.568;2022-10-16T04:11:32;6.82;;;1.77;;
52618;SDS011;38513;53.234;6.568;2022-10-16T04:13:58;6.82;;;2.00;;
52618;SDS011;38513;53.234;6.568;2022-10-16T04:16:25;7.20;;;1.80;;
52618;SDS011;38513;53.234;6.568;2022-10-16T04:18:51;7.22;;;2.00;;
52618;SDS011;38513;53.234;6.568;2022-10-16T04:21:17;7.53;;;1.70;;
52618;SDS011;38513;53.234;6.568;2022-10-16T04:23:43;5.22;;;1.70;;
52618;SDS011;38513;53.234;6.568;2022-10-16T04:26:09;7.70;;;2.03;;
52618;SDS011;38513;53.234;6.568;2022-10-16T04:28:35;5.88;;;1.83;;
52618;SDS011;38513;53.234;6.568;2022-10-16T04:31:05;6.75;;;1.90;;
52618;SDS011;38513;53.234;6.568;2022-10-16T04:33:31;6.43;;;2.00;;
52618;SDS011;38513;53.234;6.568;2022-10-16T04:35:58;6.47;;;2.10;;
52618;SDS011;38513;53.234;6.568;2022-10-16T04:38:25;6.70;;;2.20;;
52618;SDS011;38513;53.234;6.568;2022-10-16T04:40:51;6.73;;;2.00;;
52618;SDS011;38513;53.234;6.568;2022-10-16T04:43:18;5.85;;;2.03;;
52618;SDS011;38513;53.234;6.568;2022-10-16T04:45:44;6.90;;;2.20;;
52618;SDS011;38513;53.234;6.568;2022-10-16T04:48:10;7.70;;;2.17;;
52618;SDS011;38513;53.234;6.568;2022-10-16T04:50:36;6.35;;;2.10;;
52618;SDS011;38513;53.234;6.568;2022-10-16T04:53:02;7.78;;;1.98;;
52618;SDS011;38513;53.234;6.568;2022-10-16T04:55:28;7.93;;;2.13;;
52618;SDS011;38513;53.234;6.568;2022-10-16T04:57:54;7.65;;;2.13;;
52618;SDS011;38513;53.234;6.568;2022-10-16T05:00:20;6.43;;;2.00;;
52618;SDS011;38513;53.234;6.568;2022-10-16T05:02:47;6.83;;;2.37;;
52618;SDS011;38513;53.234;6.568;2022-10-16T05:05:13;8.05;;;2.22;;
52618;SDS011;38513;53.234;6.568;2022-10-16T05:07:39;8.55;;;2.20;;
52618;SDS011;38513;53.234;6.568;2022-10-16T05:10:05;8.98;;;2.30;;
52618;SDS011;38513;53.234;6.568;2022-10-16T05:12:31;7.47;;;1.97;;
52618;SDS011;38513;53.234;6.568;2022-10-16T05:14:58;8.20;;;2.20;;
52618;SDS011;38513;53.234;6.568;2022-10-16T05:17:24;8.73;;;2.40;;
52618;SDS011;38513;53.234;6.568;2022-10-16T05:19:51;7.80;;;2.17;;
52618;SDS011;38513;53.234;6.568;2022-10-16T05:22:17;6.75;;;2.40;;
52618;SDS011;38513;53.234;6.568;2022-10-16T05:24:43;7.32;;;2.55;;
52618;SDS011;38513;53.234;6.568;2022-10-16T05:27:10;7.45;;;2.97;;
52618;SDS011;38513;53.234;6.568;2022-10-16T05:29:43;9.25;;;2.50;;
52618;SDS011;38513;53.234;6.568;2022-10-16T05:32:10;8.43;;;2.50;;
52618;SDS011;38513;53.234;6.568;2022-10-16T05:34:36;8.77;;;2.50;;
52618;SDS011;38513;53.234;6.568;2022-10-16T05:37:02;9.25;;;2.75;;
52618;SDS011;38513;53.234;6.568;2022-10-16T05:39:28;8.37;;;2.53;;
52618;SDS011;38513;53.234;6.568;2022-10-16T05:41:54;7.28;;;2.45;;
52618;SDS011;38513;53.234;6.568;2022-10-16T05:44:21;7.35;;;2.65;;
52618;SDS011;38513;53.234;6.568;2022-10-16T05:46:47;7.07;;;2.60;;
52618;SDS011;38513;53.234;6.568;2022-10-16T05:49:13;9.30;;;2.78;;
52618;SDS011;38513;53.234;6.568;2022-10-16T05:51:39;7.05;;;2.60;;
52618;SDS011;38513;53.234;6.568;2022-10-16T05:54:06;7.30;;;2.50;;
52618;SDS011;38513;53.234;6.568;2022-10-16T05:56:32;9.23;;;2.58;;
52618;SDS011;38513;53.234;6.568;2022-10-16T05:58:58;9.60;;;2.90;;
52618;SDS011;38513;53.234;6.568;2022-10-16T06:01:24;7.20;;;2.70;;
52618;SDS011;38513;53.234;6.568;2022-10-16T06:03:51;7.53;;;2.70;;
52618;SDS011;38513;53.234;6.568;2022-10-16T06:06:18;8.98;;;2.58;;
52618;SDS011;38513;53.234;6.568;2022-10-16T06:11:18;8.27;;;2.95;;
52618;SDS011;38513;53.234;6.568;2022-10-16T06:13:50;10.77;;;2.90;;
52618;SDS011;38513;53.234;6.568;2022-10-16T06:16:18;10.32;;;3.80;;
52618;SDS011;38513;53.234;6.568;2022-10-16T06:18:45;9.50;;;3.00;;
52618;SDS011;38513;53.234;6.568;2022-10-16T06:21:12;7.88;;;2.72;;
52618;SDS011;38513;53.234;6.568;2022-10-16T06:23:39;8.03;;;3.10;;
52618;SDS011;38513;53.234;6.568;2022-10-16T06:26:06;9.18;;;3.30;;
52618;SDS011;38513;53.234;6.568;2022-10-16T06:28:33;8.38;;;2.90;;
52618;SDS011;38513;53.234;6.568;2022-10-16T06:31:00;8.35;;;3.10;;
52618;SDS011;38513;53.234;6.568;2022-10-16T06:33:29;7.30;;;2.95;;
52618;SDS011;38513;53.234;6.568;2022-10-16T06:36:08;9.10;;;3.00;;
52618;SDS011;38513;53.234;6.568;2022-10-16T06:38:35;8.50;;;3.20;;
52618;SDS011;38513;53.234;6.568;2022-10-16T06:41:05;8.70;;;3.67;;
52618;SDS011;38513;53.234;6.568;2022-10-16T06:43:33;12.50;;;3.97;;
52618;SDS011;38513;53.234;6.568;2022-10-16T06:46:03;9.80;;;3.07;;
52618;SDS011;38513;53.234;6.568;2022-10-16T06:48:29;7.82;;;2.80;;
52618;SDS011;38513;53.234;6.568;2022-10-16T06:53:28;10.27;;;3.08;;
52618;SDS011;38513;53.234;6.568;2022-10-16T06:55:54;7.70;;;3.10;;
52618;SDS011;38513;53.234;6.568;2022-10-16T06:58:21;7.53;;;2.87;;
52618;SDS011;38513;53.234;6.568;2022-10-16T07:00:47;10.70;;;3.15;;
52618;SDS011;38513;53.234;6.568;2022-10-16T07:03:13;9.43;;;3.00;;
52618;SDS011;38513;53.234;6.568;2022-10-16T07:05:40;8.98;;;2.90;;
52618;SDS011;38513;53.234;6.568;2022-10-16T07:08:07;11.95;;;3.13;;
52618;SDS011;38513;53.234;6.568;2022-10-16T07:10:33;9.85;;;2.90;;
52618;SDS011;38513;53.234;6.568;2022-10-16T07:12:59;11.55;;;3.00;;
52618;SDS011;38513;53.234;6.568;2022-10-16T07:15:25;8.52;;;2.65;;
52618;SDS011;38513;53.234;6.568;2022-10-16T07:17:52;10.02;;;2.85;;
52618;SDS011;38513;53.234;6.568;2022-10-16T07:20:18;8.75;;;2.70;;
52618;SDS011;38513;53.234;6.568;2022-10-16T07:22:45;9.45;;;3.05;;
52618;SDS011;38513;53.234;6.568;2022-10-16T07:28:37;8.30;;;2.80;;
52618;SDS011;38513;53.234;6.568;2022-10-16T07:31:06;7.43;;;2.45;;
52618;SDS011;38513;53.234;6.568;2022-10-16T07:33:33;8.57;;;2.40;;
52618;SDS011;38513;53.234;6.568;2022-10-16T07:35:59;9.68;;;2.60;;
52618;SDS011;38513;53.234;6.568;2022-10-16T07:38:26;9.98;;;2.65;;
52618;SDS011;38513;53.234;6.568;2022-10-16T07:40:59;7.50;;;2.40;;
52618;SDS011;38513;53.234;6.568;2022-10-16T07:43:25;6.93;;;2.75;;
52618;SDS011;38513;53.234;6.568;2022-10-16T07:45:52;10.93;;;3.20;;
52618;SDS011;38513;53.234;6.568;2022-10-16T07:48:19;9.45;;;2.80;;
52618;SDS011;38513;53.234;6.568;2022-10-16T07:50:45;8.63;;;2.70;;
52618;SDS011;38513;53.234;6.568;2022-10-16T07:53:11;11.27;;;3.00;;
52618;SDS011;38513;53.234;6.568;2022-10-16T07:55:37;8.55;;;2.90;;
52618;SDS011;38513;53.234;6.568;2022-10-16T07:58:04;7.28;;;2.55;;
52618;SDS011;38513;53.234;6.568;2022-10-16T08:00:30;8.25;;;2.72;;
52618;SDS011;38513;53.234;6.568;2022-10-16T08:02:57;7.75;;;2.67;;
52618;SDS011;38513;53.234;6.568;2022-10-16T08:05:32;8.80;;;3.05;;
52618;SDS011;38513;53.234;6.568;2022-10-16T08:08:00;9.80;;;2.80;;
52618;SDS011;38513;53.234;6.568;2022-10-16T08:10:27;8.55;;;3.00;;
52618;SDS011;38513;53.234;6.568;2022-10-16T08:12:53;9.38;;;3.40;;
52618;SDS011;38513;53.234;6.568;2022-10-16T08:15:19;7.82;;;3.15;;
52618;SDS011;38513;53.234;6.568;2022-10-16T08:18:00;8.32;;;3.25;;
52618;SDS011;38513;53.234;6.568;2022-10-16T08:20:29;10.75;;;3.22;;
52618;SDS011;38513;53.234;6.568;2022-10-16T08:22:58;8.57;;;3.20;;
52618;SDS011;38513;53.234;6.568;2022-10-16T08:25:25;8.77;;;3.00;;
52618;SDS011;38513;53.234;6.568;2022-10-16T08:27:51;9.38;;;3.00;;
52618;SDS011;38513;53.234;6.568;2022-10-16T08:30:18;7.78;;;2.90;;
52618;SDS011;38513;53.234;6.568;2022-10-16T08:32:44;7.90;;;2.88;;
52618;SDS011;38513;53.234;6.568;2022-10-16T08:35:11;8.07;;;2.77;;
52618;SDS011;38513;53.234;6.568;2022-10-16T08:37:38;8.35;;;2.50;;
52618;SDS011;38513;53.234;6.568;2022-10-16T08:40:05;9.73;;;2.73;;
52618;SDS011;38513;53.234;6.568;2022-10-16T08:50:24;8.98;;;2.30;;
52618;SDS011;38513;53.234;6.568;2022-10-16T08:52:52;9.80;;;2.40;;
52618;SDS011;38513;53.234;6.568;2022-10-16T08:58:17;9.45;;;2.15;;
52618;SDS011;38513;53.234;6.568;2022-10-16T09:00:49;8.63;;;2.23;;
52618;SDS011;38513;53.234;6.568;2022-10-16T09:08:28;8.38;;;2.10;;
52618;SDS011;38513;53.234;6.568;2022-10-16T09:11:03;10.73;;;2.42;;
52618;SDS011;38513;53.234;6.568;2022-10-16T09:13:40;7.95;;;1.92;;
52618;SDS011;38513;53.234;6.568;2022-10-16T09:16:17;8.55;;;2.30;;
52618;SDS011;38513;53.234;6.568;2022-10-16T09:18:50;9.18;;;1.90;;
52618;SDS011;38513;53.234;6.568;2022-10-16T09:21:20;11.95;;;2.35;;
52618;SDS011;38513;53.234;6.568;2022-10-16T09:23:47;11.20;;;2.20;;
52618;SDS011;38513;53.234;6.568;2022-10-16T09:26:16;10.18;;;2.15;;
52618;SDS011;38513;53.234;6.568;2022-10-16T09:28:44;9.95;;;2.13;;
52618;SDS011;38513;53.234;6.568;2022-10-16T09:31:13;8.70;;;2.00;;
52618;SDS011;38513;53.234;6.568;2022-10-16T09:33:39;8.85;;;2.33;;
52618;SDS011;38513;53.234;6.568;2022-10-16T09:36:08;9.07;;;1.90;;
52618;SDS011;38513;53.234;6.568;2022-10-16T09:38:38;9.40;;;2.30;;
52618;SDS011;38513;53.234;6.568;2022-10-16T09:41:21;9.88;;;2.42;;
52618;SDS011;38513;53.234;6.568;2022-10-16T09:46:37;12.10;;;2.53;;
52618;SDS011;38513;53.234;6.568;2022-10-16T09:49:16;9.65;;;2.05;;
52618;SDS011;38513;53.234;6.568;2022-10-16T09:51:44;12.00;;;2.60;;
52618;SDS011;38513;53.234;6.568;2022-10-16T09:56:36;10.05;;;2.38;;
52618;SDS011;38513;53.234;6.568;2022-10-16T09:59:24;14.23;;;2.90;;
52618;SDS011;38513;53.234;6.568;2022-10-16T10:01:53;12.45;;;2.55;;
52618;SDS011;38513;53.234;6.568;2022-10-16T10:04:22;12.15;;;2.50;;
52618;SDS011;38513;53.234;6.568;2022-10-16T10:06:50;11.50;;;2.42;;
52618;SDS011;38513;53.234;6.568;2022-10-16T10:09:22;14.43;;;2.65;;
52618;SDS011;38513;53.234;6.568;2022-10-16T10:12:01;13.02;;;2.90;;
52618;SDS011;38513;53.234;6.568;2022-10-16T10:24:56;14.40;;;2.75;;
52618;SDS011;38513;53.234;6.568;2022-10-16T10:27:45;14.40;;;2.88;;
52618;SDS011;38513;53.234;6.568;2022-10-16T10:35:45;14.10;;;2.65;;
52618;SDS011;38513;53.234;6.568;2022-10-16T10:45:47;14.88;;;3.08;;
52618;SDS011;38513;53.234;6.568;2022-10-16T10:48:20;14.18;;;3.22;;
52618;SDS011;38513;53.234;6.568;2022-10-16T10:50:49;13.65;;;2.67;;
52618;SDS011;38513;53.234;6.568;2022-10-16T10:53:32;13.90;;;3.10;;
52618;SDS011;38513;53.234;6.568;2022-10-16T11:01:14;13.10;;;2.83;;
52618;SDS011;38513;53.234;6.568;2022-10-16T11:06:14;14.65;;;2.95;;
52618;SDS011;38513;53.234;6.568;2022-10-16T11:08:43;13.70;;;3.13;;
52618;SDS011;38513;53.234;6.568;2022-10-16T11:11:23;14.77;;;3.10;;
52618;SDS011;38513;53.234;6.568;2022-10-16T11:16:38;12.95;;;2.90;;
52618;SDS011;38513;53.234;6.568;2022-10-16T11:19:19;11.63;;;2.72;;
52618;SDS011;38513;53.234;6.568;2022-10-16T11:21:53;15.10;;;3.17;;
52618;SDS011;38513;53.234;6.568;2022-10-16T11:24:22;13.18;;;2.92;;
52618;SDS011;38513;53.234;6.568;2022-10-16T11:26:49;13.50;;;2.80;;
52618;SDS011;38513;53.234;6.568;2022-10-16T11:29:17;14.53;;;3.00;;
52618;SDS011;38513;53.234;6.568;2022-10-16T11:31:50;17.50;;;3.22;;
52618;SDS011;38513;53.234;6.568;2022-10-16T11:34:29;13.68;;;2.78;;
52618;SDS011;38513;53.234;6.568;2022-10-16T11:39:42;16.05;;;2.78;;
52618;SDS011;38513;53.234;6.568;2022-10-16T11:49:37;12.82;;;2.60;;
52618;SDS011;38513;53.234;6.568;2022-10-16T11:54:39;13.80;;;2.95;;
52618;SDS011;38513;53.234;6.568;2022-10-16T11:57:09;14.20;;;3.00;;
52618;SDS011;38513;53.234;6.568;2022-10-16T12:04:49;16.95;;;2.90;;
52618;SDS011;38513;53.234;6.568;2022-10-16T12:07:23;12.65;;;2.53;;
52618;SDS011;38513;53.234;6.568;2022-10-16T12:09:50;14.17;;;2.60;;
52618;SDS011;38513;53.234;6.568;2022-10-16T12:12:27;14.70;;;2.88;;
52618;SDS011;38513;53.234;6.568;2022-10-16T12:17:38;15.00;;;2.97;;
52618;SDS011;38513;53.234;6.568;2022-10-16T12:22:41;13.85;;;2.78;;
52618;SDS011;38513;53.234;6.568;2022-10-16T12:27:56;12.55;;;2.88;;
52618;SDS011;38513;53.234;6.568;2022-10-16T12:33:22;16.30;;;3.22;;
52618;SDS011;38513;53.234;6.568;2022-10-16T12:35:49;15.05;;;3.10;;
52618;SDS011;38513;53.234;6.568;2022-10-16T12:38:49;14.35;;;2.78;;
52618;SDS011;38513;53.234;6.568;2022-10-16T12:41:08;14.65;;;3.05;;
52618;SDS011;38513;53.234;6.568;2022-10-16T12:43:40;14.18;;;2.83;;
52618;SDS011;38513;53.234;6.568;2022-10-16T12:48:42;17.48;;;3.45;;
52618;SDS011;38513;53.234;6.568;2022-10-16T12:51:55;16.15;;;2.95;;
52618;SDS011;38513;53.234;6.568;2022-10-16T12:56:50;14.57;;;2.72;;
52618;SDS011;38513;53.234;6.568;2022-10-16T13:06:45;12.27;;;2.70;;
52618;SDS011;38513;53.234;6.568;2022-10-16T13:09:18;14.68;;;3.10;;
52618;SDS011;38513;53.234;6.568;2022-10-16T13:22:02;12.60;;;2.20;;
52618;SDS011;38513;53.234;6.568;2022-10-16T13:27:15;12.85;;;2.58;;
52618;SDS011;38513;53.234;6.568;2022-10-16T13:29:45;14.10;;;3.05;;
52618;SDS011;38513;53.234;6.568;2022-10-16T13:32:21;13.90;;;2.67;;
52618;SDS011;38513;53.234;6.568;2022-10-16T13:38:27;14.52;;;2.45;;
52618;SDS011;38513;53.234;6.568;2022-10-16T13:41:17;11.45;;;2.15;;
52618;SDS011;38513;53.234;6.568;2022-10-16T13:43:47;13.18;;;2.85;;
52618;SDS011;38513;53.234;6.568;2022-10-16T13:46:22;12.02;;;2.47;;
52618;SDS011;38513;53.234;6.568;2022-10-16T13:49:12;12.60;;;2.75;;
52618;SDS011;38513;53.234;6.568;2022-10-16T14:00:55;16.65;;;3.33;;
52618;SDS011;38513;53.234;6.568;2022-10-16T14:10:07;15.52;;;4.85;;
52618;SDS011;38513;53.234;6.568;2022-10-16T14:18:39;13.55;;;3.20;;
52618;SDS011;38513;53.234;6.568;2022-10-16T14:21:06;15.55;;;4.05;;
52618;SDS011;38513;53.234;6.568;2022-10-16T14:23:39;15.60;;;3.53;;
52618;SDS011;38513;53.234;6.568;2022-10-16T14:29:27;14.02;;;2.95;;
52618;SDS011;38513;53.234;6.568;2022-10-16T14:31:59;14.52;;;2.90;;
52618;SDS011;38513;53.234;6.568;2022-10-16T14:34:34;12.18;;;2.60;;
52618;SDS011;38513;53.234;6.568;2022-10-16T14:37:20;15.38;;;2.95;;
52618;SDS011;38513;53.234;6.568;2022-10-16T14:39:57;15.38;;;3.40;;
52618;SDS011;38513;53.234;6.568;2022-10-16T14:42:29;15.80;;;3.33;;
52618;SDS011;38513;53.234;6.568;2022-10-16T14:45:07;15.60;;;3.10;;
52618;SDS011;38513;53.234;6.568;2022-10-16T14:47:56;13.75;;;2.50;;
52618;SDS011;38513;53.234;6.568;2022-10-16T14:50:28;13.48;;;2.85;;
52618;SDS011;38513;53.234;6.568;2022-10-16T14:53:15;14.93;;;3.30;;
52618;SDS011;38513;53.234;6.568;2022-10-16T14:55:44;14.18;;;2.53;;
52618;SDS011;38513;53.234;6.568;2022-10-16T14:58:21;15.73;;;3.28;;
52618;SDS011;38513;53.234;6.568;2022-10-16T15:00:48;13.60;;;3.22;;
52618;SDS011;38513;53.234;6.568;2022-10-16T15:03:35;15.27;;;3.03;;
52618;SDS011;38513;53.234;6.568;2022-10-16T15:06:02;15.75;;;2.95;;
52618;SDS011;38513;53.234;6.568;2022-10-16T15:08:37;16.10;;;3.17;;
52618;SDS011;38513;53.234;6.568;2022-10-16T15:11:14;12.80;;;2.67;;
52618;SDS011;38513;53.234;6.568;2022-10-16T15:13:43;17.60;;;3.47;;
52618;SDS011;38513;53.234;6.568;2022-10-16T15:16:15;15.52;;;3.35;;
52618;SDS011;38513;53.234;6.568;2022-10-16T15:18:45;17.30;;;3.75;;
52618;SDS011;38513;53.234;6.568;2022-10-16T15:21:30;13.88;;;3.38;;
52618;SDS011;38513;53.234;6.568;2022-10-16T15:24:00;16.03;;;3.40;;
52618;SDS011;38513;53.234;6.568;2022-10-16T15:26:27;15.67;;;3.40;;
52618;SDS011;38513;53.234;6.568;2022-10-16T15:28:53;15.77;;;3.55;;
52618;SDS011;38513;53.234;6.568;2022-10-16T15:31:40;15.90;;;3.63;;
52618;SDS011;38513;53.234;6.568;2022-10-16T15:34:18;15.82;;;3.40;;
52618;SDS011;38513;53.234;6.568;2022-10-16T15:36:44;13.90;;;3.15;;
52618;SDS011;38513;53.234;6.568;2022-10-16T15:39:29;15.32;;;3.28;;
52618;SDS011;38513;53.234;6.568;2022-10-16T15:41:55;13.80;;;3.88;;
52618;SDS011;38513;53.234;6.568;2022-10-16T15:44:28;15.32;;;3.10;;
52618;SDS011;38513;53.234;6.568;2022-10-16T15:53:19;12.93;;;3.45;;
52618;SDS011;38513;53.234;6.568;2022-10-16T15:55:51;14.98;;;3.90;;
52618;SDS011;38513;53.234;6.568;2022-10-16T15:58:23;13.50;;;3.97;;
52618;SDS011;38513;53.234;6.568;2022-10-16T16:03:40;12.60;;;3.22;;
52618;SDS011;38513;53.234;6.568;2022-10-16T16:06:08;17.95;;;3.90;;
52618;SDS011;38513;53.234;6.568;2022-10-16T16:08:40;17.13;;;3.80;;
52618;SDS011;38513;53.234;6.568;2022-10-16T16:13:52;17.23;;;3.67;;
52618;SDS011;38513;53.234;6.568;2022-10-16T16:16:20;14.25;;;3.45;;
52618;SDS011;38513;53.234;6.568;2022-10-16T16:18:46;16.00;;;4.03;;
52618;SDS011;38513;53.234;6.568;2022-10-16T16:21:14;17.40;;;3.90;;
52618;SDS011;38513;53.234;6.568;2022-10-16T16:23:46;17.37;;;4.30;;
52618;SDS011;38513;53.234;6.568;2022-10-16T16:26:22;15.40;;;3.83;;
52618;SDS011;38513;53.234;6.568;2022-10-16T16:28:51;15.15;;;3.55;;
52618;SDS011;38513;53.234;6.568;2022-10-16T16:31:20;13.57;;;3.97;;
52618;SDS011;38513;53.234;6.568;2022-10-16T16:33:49;16.23;;;3.90;;
52618;SDS011;38513;53.234;6.568;2022-10-16T16:36:16;17.67;;;4.22;;
52618;SDS011;38513;53.234;6.568;2022-10-16T16:38:43;14.90;;;3.78;;
52618;SDS011;38513;53.234;6.568;2022-10-16T16:41:13;15.90;;;4.25;;
52618;SDS011;38513;53.234;6.568;2022-10-16T16:43:42;15.93;;;4.13;;
52618;SDS011;38513;53.234;6.568;2022-10-16T16:46:09;16.45;;;4.03;;
52618;SDS011;38513;53.234;6.568;2022-10-16T16:48:35;13.83;;;4.10;;
52618;SDS011;38513;53.234;6.568;2022-10-16T16:51:14;15.82;;;4.35;;
52618;SDS011;38513;53.234;6.568;2022-10-16T16:53:51;13.98;;;4.05;;
52618;SDS011;38513;53.234;6.568;2022-10-16T16:56:25;19.05;;;4.70;;
52618;SDS011;38513;53.234;6.568;2022-10-16T16:58:53;14.82;;;4.20;;
52618;SDS011;38513;53.234;6.568;2022-10-16T17:01:23;16.55;;;4.88;;
52618;SDS011;38513;53.234;6.568;2022-10-16T17:03:51;16.10;;;4.05;;
52618;SDS011;38513;53.234;6.568;2022-10-16T17:06:18;13.65;;;4.35;;
52618;SDS011;38513;53.234;6.568;2022-10-16T17:08:44;16.27;;;4.70;;
52618;SDS011;38513;53.234;6.568;2022-10-16T17:11:18;16.23;;;4.20;;
52618;SDS011;38513;53.234;6.568;2022-10-16T17:13:45;13.45;;;4.25;;
52618;SDS011;38513;53.234;6.568;2022-10-16T17:16:11;18.75;;;5.15;;
52618;SDS011;38513;53.234;6.568;2022-10-16T17:18:37;15.75;;;4.97;;
52618;SDS011;38513;53.234;6.568;2022-10-16T17:21:07;20.10;;;5.82;;
52618;SDS011;38513;53.234;6.568;2022-10-16T17:23:35;16.10;;;5.15;;
52618;SDS011;38513;53.234;6.568;2022-10-16T17:28:33;19.02;;;5.72;;
52618;SDS011;38513;53.234;6.568;2022-10-16T17:31:15;17.33;;;4.90;;
52618;SDS011;38513;53.234;6.568;2022-10-16T17:33:41;16.92;;;5.20;;
52618;SDS011;38513;53.234;6.568;2022-10-16T17:36:21;18.88;;;5.82;;
52618;SDS011;38513;53.234;6.568;2022-10-16T17:38:50;18.93;;;5.57;;
52618;SDS011;38513;53.234;6.568;2022-10-16T17:41:20;15.83;;;5.33;;
52618;SDS011;38513;53.234;6.568;2022-10-16T17:43:54;17.92;;;5.43;;
52618;SDS011;38513;53.234;6.568;2022-10-16T17:46:25;17.92;;;5.65;;
52618;SDS011;38513;53.234;6.568;2022-10-16T17:48:54;18.25;;;5.88;;
52618;SDS011;38513;53.234;6.568;2022-10-16T17:51:24;16.95;;;6.25;;
52618;SDS011;38513;53.234;6.568;2022-10-16T17:53:51;19.25;;;6.43;;
52618;SDS011;38513;53.234;6.568;2022-10-16T17:56:17;17.30;;;6.27;;